createdAt,value
2018-12-23T00:04:16.654Z,27.25
2018-12-23T00:10:20.078Z,18.57
2018-12-23T00:16:23.510Z,25.50
2018-12-23T00:22:26.940Z,19.87
2018-12-23T00:28:30.410Z,20.77
2018-12-23T00:34:33.862Z,31.62
2018-12-23T00:40:37.312Z,21.17
2018-12-23T00:46:40.736Z,27.35
2018-12-23T00:52:44.203Z,24.52
2018-12-23T00:58:48.635Z,22.42
2018-12-23T01:04:52.156Z,22.48
2018-12-23T01:10:55.709Z,28.02
2018-12-23T01:16:59.145Z,24.92
2018-12-23T01:23:02.577Z,17.75
2018-12-23T01:29:06.116Z,18.62
2018-12-23T01:35:09.691Z,27.48
2018-12-23T01:41:13.241Z,18.75
2018-12-23T01:47:16.699Z,23.00
2018-12-23T01:53:20.163Z,21.42
2018-12-23T01:59:23.577Z,20.92
2018-12-23T02:05:27.077Z,25.97
2018-12-23T02:11:30.546Z,24.12
2018-12-23T02:17:33.983Z,20.75
2018-12-23T02:23:37.431Z,19.73
2018-12-23T02:29:41.336Z,25.52
2018-12-23T02:35:44.744Z,18.48
2018-12-23T02:41:48.343Z,23.70
2018-12-23T02:47:51.776Z,20.50
2018-12-23T02:53:55.205Z,27.80
2018-12-23T02:59:58.732Z,21.97
2018-12-23T03:06:06.179Z,26.60
2018-12-23T03:12:09.095Z,20.02
2018-12-23T03:18:13.721Z,22.75
2018-12-23T03:24:17.734Z,25.88
2018-12-23T03:30:21.174Z,24.15
2018-12-23T03:36:24.583Z,25.12
2018-12-23T03:42:28.107Z,27.20
2018-12-23T03:48:31.531Z,27.02
2018-12-23T03:54:35.041Z,26.07
2018-12-23T04:00:38.479Z,32.15
2018-12-23T04:06:41.976Z,35.08
2018-12-23T04:12:45.425Z,23.90
2018-12-23T04:18:49.069Z,33.60
2018-12-23T04:24:52.735Z,27.10
2018-12-23T04:30:56.327Z,29.85
2018-12-23T04:36:59.768Z,25.50
2018-12-23T04:43:03.345Z,29.95
2018-12-23T04:49:06.811Z,28.62
2018-12-23T04:55:10.251Z,26.05
2018-12-23T05:01:13.685Z,26.40
2018-12-23T05:07:17.151Z,26.85
2018-12-23T05:13:20.660Z,26.93
2018-12-23T05:19:24.239Z,31.35
2018-12-23T05:25:27.788Z,23.67
2018-12-23T05:31:31.291Z,29.23
2018-12-23T05:37:34.762Z,33.13
2018-12-23T05:43:38.199Z,25.68
2018-12-23T05:49:41.738Z,28.47
2018-12-23T05:55:44.292Z,27.55
2018-12-23T06:01:47.748Z,31.87
2018-12-23T06:07:51.194Z,33.08
2018-12-23T06:13:54.696Z,33.33
2018-12-23T06:19:58.127Z,28.67
2018-12-23T06:26:01.629Z,24.40
2018-12-23T06:32:05.209Z,27.42
2018-12-23T06:38:08.665Z,25.27
2018-12-23T06:44:12.129Z,33.05
2018-12-23T06:50:15.560Z,24.70
2018-12-23T06:56:19.046Z,30.97
2018-12-23T07:02:22.565Z,29.40
2018-12-23T07:08:26.120Z,30.62
2018-12-23T07:14:29.599Z,28.35
2018-12-23T07:20:33.088Z,34.38
2018-12-23T07:26:37.159Z,33.67
2018-12-23T07:32:40.736Z,30.05
2018-12-23T07:38:44.230Z,27.93
2018-12-23T07:44:48.265Z,25.50
2018-12-23T07:50:53.648Z,30.40
2018-12-23T07:56:57.193Z,24.70
2018-12-23T08:03:00.619Z,31.73
2018-12-23T08:09:05.997Z,30.32
2018-12-23T08:15:09.554Z,32.85
2018-12-23T08:21:12.998Z,25.32
2018-12-23T08:27:16.486Z,25.95
2018-12-23T08:33:19.973Z,27.20
2018-12-23T08:39:24.125Z,23.92
2018-12-23T08:45:27.597Z,28.12
2018-12-23T08:51:31.069Z,28.35
2018-12-23T08:57:35.457Z,25.23
2018-12-23T09:03:39.109Z,27.35
2018-12-23T09:09:42.518Z,27.93
2018-12-23T09:15:45.968Z,21.82
2018-12-23T09:21:49.547Z,28.05
2018-12-23T09:27:52.994Z,19.82
2018-12-23T09:33:56.516Z,17.17
2018-12-23T09:40:00.184Z,21.10
2018-12-23T09:46:03.702Z,19.02
2018-12-23T09:52:07.241Z,13.53
2018-12-23T09:58:10.713Z,11.60
2018-12-23T10:04:14.184Z,10.80
2018-12-23T10:10:17.854Z,10.98
2018-12-23T10:16:21.289Z,9.48
2018-12-23T10:22:24.802Z,11.73
2018-12-23T10:28:28.238Z,10.55
2018-12-23T10:34:33.186Z,8.85
2018-12-23T10:40:36.827Z,12.50
2018-12-23T10:46:40.285Z,10.70
2018-12-23T10:52:43.763Z,11.53
2018-12-23T10:58:47.277Z,12.93
2018-12-23T11:04:50.739Z,11.53
2018-12-23T11:10:54.869Z,11.80
2018-12-23T11:16:58.583Z,11.78
2018-12-23T11:23:02.018Z,6.72
2018-12-23T11:29:05.468Z,9.75
2018-12-23T11:35:09.175Z,8.38
2018-12-23T11:41:12.759Z,11.30
2018-12-23T11:47:16.219Z,8.35
2018-12-23T11:53:19.721Z,10.58
2018-12-23T11:59:23.171Z,6.35
2018-12-23T12:05:27.469Z,7.55
2018-12-23T12:11:30.906Z,9.20
2018-12-23T12:17:34.525Z,11.78
2018-12-23T12:23:38.276Z,12.07
2018-12-23T12:29:41.783Z,6.78
2018-12-23T12:35:45.231Z,7.40
2018-12-23T12:41:48.697Z,7.53
2018-12-23T12:47:52.287Z,7.83
2018-12-23T12:53:55.744Z,6.67
2018-12-23T12:59:59.288Z,8.35
2018-12-23T13:06:02.880Z,7.62
2018-12-23T13:12:06.344Z,6.95
2018-12-23T13:18:09.778Z,13.80
2018-12-23T13:24:13.330Z,13.00
2018-12-23T13:30:16.851Z,8.18
2018-12-23T13:36:20.373Z,9.33
2018-12-23T13:42:42.062Z,11.55
2018-12-23T13:49:41.099Z,8.73
2018-12-23T13:57:12.467Z,7.08
2018-12-23T14:03:53.121Z,7.72
2018-12-23T14:10:07.834Z,4.80
2018-12-23T14:16:12.615Z,5.15
2018-12-23T14:22:17.390Z,3.22
2018-12-23T14:28:22.200Z,4.20
2018-12-23T14:34:27.235Z,4.42
2018-12-23T14:40:31.909Z,7.08
2018-12-23T14:46:36.569Z,5.58
2018-12-23T14:52:41.256Z,4.83
2018-12-23T14:58:46.053Z,4.70
2018-12-23T15:04:50.713Z,5.72
2018-12-23T15:10:55.448Z,6.30
2018-12-23T15:17:00.110Z,3.30
2018-12-23T15:23:10.649Z,7.75
2018-12-23T15:29:11.393Z,4.72
2018-12-23T15:35:16.180Z,6.33
2018-12-23T15:41:20.915Z,4.67
2018-12-23T15:47:25.693Z,7.60
2018-12-23T15:53:30.463Z,5.40
2018-12-23T15:59:35.218Z,7.20
2018-12-23T16:05:39.919Z,4.62
2018-12-23T16:11:44.609Z,7.55
2018-12-23T16:17:49.316Z,6.22
2018-12-23T16:23:54.122Z,9.53
2018-12-23T16:29:58.798Z,7.55
2018-12-23T16:36:03.492Z,5.45
2018-12-23T16:42:08.274Z,5.85
2018-12-23T16:48:14.969Z,3.35
2018-12-23T16:54:21.742Z,6.28
2018-12-23T17:00:27.428Z,6.92
2018-12-23T17:06:32.198Z,8.48
2018-12-23T17:12:38.781Z,7.42
2018-12-23T17:18:43.516Z,7.08
2018-12-23T17:24:48.152Z,7.97
2018-12-23T17:30:52.795Z,11.28
2018-12-23T17:36:57.525Z,7.83
2018-12-23T17:43:02.207Z,11.90
2018-12-23T17:49:06.877Z,12.05
2018-12-23T17:55:11.617Z,11.20
2018-12-23T18:01:16.482Z,11.83
2018-12-23T18:07:21.265Z,10.60
2018-12-23T18:13:26.180Z,19.12
2018-12-23T18:19:30.922Z,11.65
2018-12-23T18:25:35.693Z,12.85
2018-12-23T18:31:40.337Z,14.98
2018-12-23T18:37:45.011Z,9.95
2018-12-23T18:43:50.078Z,18.48
2018-12-23T18:49:54.841Z,16.00
2018-12-23T18:55:59.468Z,13.45
2018-12-23T19:02:08.770Z,17.07
2018-12-23T19:08:18.073Z,9.88
2018-12-23T19:14:53.721Z,18.27
2018-12-23T19:21:44.953Z,19.15
2018-12-23T19:28:27.701Z,35.28
2018-12-23T19:35:10.347Z,25.08
2018-12-23T19:42:04.951Z,23.75
2018-12-23T19:48:49.625Z,34.10
2018-12-23T19:55:21.475Z,6.15
2018-12-23T20:01:47.519Z,5.40
2018-12-23T20:08:26.526Z,19.17
2018-12-23T20:15:29.526Z,34.65
2018-12-23T20:22:21.654Z,6.53
2018-12-23T20:28:57.248Z,6.62
2018-12-23T20:35:50.462Z,6.53
2018-12-23T20:42:31.918Z,15.65
2018-12-23T20:49:11.010Z,17.10
2018-12-23T20:55:53.190Z,9.23
2018-12-23T21:02:35.972Z,3.52
2018-12-23T21:09:35.959Z,2.92
2018-12-23T21:16:36.179Z,3.65
2018-12-23T21:23:30.403Z,3.77
2018-12-23T21:30:04.273Z,6.55
2018-12-23T21:36:42.276Z,5.50
2018-12-23T21:43:16.345Z,3.92
2018-12-23T21:49:54.803Z,2.65
2018-12-23T21:57:07.248Z,4.72
2018-12-23T22:03:48.309Z,4.30
2018-12-23T22:10:21.171Z,4.00
2018-12-23T22:16:25.914Z,4.28
2018-12-23T22:22:30.722Z,6.72
2018-12-23T22:28:35.714Z,4.95
2018-12-23T22:34:40.462Z,6.58
2018-12-23T22:40:53.123Z,8.83
2018-12-23T22:46:57.870Z,6.28
2018-12-23T22:53:02.519Z,8.20
2018-12-23T22:59:07.164Z,4.87
2018-12-23T23:05:11.992Z,9.23
2018-12-23T23:11:16.644Z,8.38
2018-12-23T23:17:21.421Z,5.72
2018-12-23T23:23:26.166Z,8.40
2018-12-23T23:29:30.860Z,5.22
2018-12-23T23:35:35.734Z,4.12
2018-12-23T23:41:40.527Z,4.97
2018-12-23T23:47:45.157Z,4.35
2018-12-23T23:53:50.127Z,5.87
2018-12-23T23:59:54.847Z,8.55
